Time;durP1;ratioP1;P1;durP2;ratioP2;P2;SDS_P1;SDS_P2;PMS_P1;PMS_P2;Temp;Humidity;BMP_temperature;BMP_pressure;BME280_temperature;BME280_humidity;BME280_pressure;Samples;Min_cycle;Max_cycle;Signal;HPM_P1;HPM_P2
2023/01/05 03:13:42;;;;;;;11.47;11.17;;;12.40;99.90;;;;;;6259483;22;20473;-73
2023/01/05 03:16:11;;;;;;;11.03;10.73;;;12.50;99.90;;;;;;6286495;22;20387;-77
2023/01/05 03:21:21;;;;;;;12.27;11.87;;;12.50;99.90;;;;;;6271471;22;20413;-74
2023/01/05 03:37:47;;;;;;;12.47;12.07;;;12.60;99.90;;;;;;6271175;22;20375;-75
2023/01/05 03:40:18;;;;;;;12.37;11.97;;;12.60;99.90;;;;;;6271439;22;20867;-75
2023/01/05 03:42:46;;;;;;;12.90;12.50;;;12.40;99.90;;;;;;6271357;22;20430;-75
2023/01/05 03:45:16;;;;;;;12.90;12.50;;;12.40;99.90;;;;;;6271488;22;20402;-75
2023/01/05 03:47:42;;;;;;;12.33;11.97;;;12.30;99.90;;;;;;6271904;22;20681;-75
2023/01/05 03:50:10;;;;;;;11.27;10.77;;;12.50;99.90;;;;;;6271627;22;20730;-75
2023/01/05 03:52:36;;;;;;;11.90;11.50;;;12.50;99.90;;;;;;6270833;22;20991;-74
2023/01/05 03:55:03;;;;;;;11.50;11.20;;;12.60;99.90;;;;;;6270534;22;20976;-75
2023/01/05 03:57:30;;;;;;;12.60;12.20;;;12.60;99.90;;;;;;6271106;22;20465;-74
2023/01/05 03:59:56;;;;;;;12.80;12.40;;;12.60;99.90;;;;;;6270940;22;20414;-74
2023/01/05 04:02:24;;;;;;;13.70;12.90;;;12.60;99.90;;;;;;6271025;22;20407;-74
2023/01/05 04:04:51;;;;;;;12.20;11.80;;;12.60;99.90;;;;;;6270436;22;20422;-74
2023/01/05 04:07:18;;;;;;;12.70;12.30;;;12.60;99.90;;;;;;6270501;22;20403;-76
2023/01/05 04:09:46;;;;;;;12.37;11.97;;;12.70;99.90;;;;;;6270992;22;20684;-76
2023/01/05 04:12:13;;;;;;;13.07;12.67;;;12.60;99.90;;;;;;6249458;22;20502;-73
2023/01/05 04:14:40;;;;;;;13.00;12.60;;;12.50;99.90;;;;;;6240443;23;20619;-74
2023/01/05 04:17:06;;;;;;;13.87;13.37;;;12.40;99.90;;;;;;6241930;23;20412;-74
2023/01/05 04:19:34;;;;;;;14.90;14.20;;;12.40;99.90;;;;;;6242175;23;20407;-75
2023/01/05 04:22:01;;;;;;;15.27;14.37;;;12.40;99.90;;;;;;6241142;23;20415;-75
2023/01/05 04:24:28;;;;;;;16.13;15.30;;;12.50;99.90;;;;;;6242347;23;20403;-74
2023/01/05 04:26:54;;;;;;;17.10;16.30;;;12.60;99.90;;;;;;6242077;23;20411;-75
2023/01/05 04:29:21;;;;;;;18.07;17.17;;;12.50;99.90;;;;;;6241799;23;20411;-75
2023/01/05 04:31:48;;;;;;;17.00;16.20;;;12.60;99.90;;;;;;6241986;23;20748;-75
2023/01/05 04:34:14;;;;;;;15.30;14.50;;;12.60;99.90;;;;;;6242330;23;20813;-74
2023/01/05 04:36:42;;;;;;;15.23;14.63;;;12.60;99.90;;;;;;6241888;23;20408;-74
2023/01/05 04:39:09;;;;;;;16.00;15.20;;;12.70;99.90;;;;;;6242433;23;20705;-76
2023/01/05 04:41:36;;;;;;;13.77;13.27;;;12.70;99.90;;;;;;6241795;23;20434;-76
2023/01/05 04:44:02;;;;;;;14.07;13.57;;;12.80;99.90;;;;;;6241905;23;20415;-76
2023/01/05 04:46:29;;;;;;;16.40;15.70;;;12.90;99.90;;;;;;6242251;23;20426;-75
2023/01/05 04:48:56;;;;;;;16.13;15.53;;;12.90;99.90;;;;;;6241588;23;20408;-75
2023/01/05 04:51:22;;;;;;;15.13;14.63;;;12.90;99.90;;;;;;6241886;23;20414;-75
2023/01/05 04:53:50;;;;;;;14.70;14.20;;;12.80;99.90;;;;;;6241404;23;20521;-74
2023/01/05 04:56:17;;;;;;;14.43;13.93;;;12.70;99.90;;;;;;6241192;23;20443;-73
2023/01/05 04:58:44;;;;;;;14.73;14.23;;;12.70;99.90;;;;;;6241680;23;20891;-76
2023/01/05 05:01:11;;;;;;;13.77;13.37;;;12.70;99.90;;;;;;6242372;23;20415;-75
2023/01/05 05:03:37;;;;;;;12.50;12.10;;;12.80;99.90;;;;;;6241890;23;20415;-74
2023/01/05 05:06:04;;;;;;;13.20;12.80;;;12.90;99.90;;;;;;6242255;23;20407;-75
2023/01/05 05:08:31;;;;;;;12.90;12.50;;;12.90;99.90;;;;;;6242060;23;20404;-74
2023/01/05 05:10:59;;;;;;;13.93;13.33;;;13.00;99.90;;;;;;6242085;22;20754;-75
2023/01/05 05:13:26;;;;;;;13.60;13.20;;;13.20;99.90;;;;;;6241323;23;20461;-75
2023/01/05 05:15:53;;;;;;;13.23;12.83;;;13.30;99.90;;;;;;6241678;23;20447;-75
2023/01/05 05:18:21;;;;;;;13.87;13.47;;;13.20;99.90;;;;;;6241781;23;20933;-76
2023/01/05 05:20:49;;;;;;;12.53;12.13;;;13.30;99.90;;;;;;6241265;23;20408;-76
2023/01/05 05:23:16;;;;;;;13.10;12.70;;;13.40;99.90;;;;;;6241634;23;20469;-75
2023/01/05 05:25:43;;;;;;;12.87;12.47;;;13.30;99.90;;;;;;6241615;23;20674;-75
2023/01/05 05:28:11;;;;;;;13.13;12.73;;;13.20;99.90;;;;;;6241459;23;20419;-75
2023/01/05 05:30:38;;;;;;;13.10;12.70;;;13.20;99.90;;;;;;6241060;23;20903;-74
2023/01/05 05:33:05;;;;;;;14.10;13.70;;;13.20;99.90;;;;;;6241019;23;20419;-74
2023/01/05 05:35:31;;;;;;;14.80;14.30;;;13.10;99.90;;;;;;6241008;23;20443;-74
2023/01/05 05:37:58;;;;;;;20.90;20.10;;;13.10;99.90;;;;;;6241740;23;20716;-74
2023/01/05 05:40:25;;;;;;;27.97;26.67;;;13.10;99.90;;;;;;6241754;23;20408;-72
2023/01/05 05:42:51;;;;;;;30.37;28.97;;;12.90;99.90;;;;;;6241213;23;20446;-73
2023/01/05 05:45:19;;;;;;;30.07;28.67;;;12.80;99.90;;;;;;6241319;23;20411;-72
2023/01/05 05:47:46;;;;;;;31.07;29.47;;;12.70;99.90;;;;;;6240950;23;20431;-73
2023/01/05 05:50:13;;;;;;;29.90;28.40;;;12.50;99.90;;;;;;6241502;23;20412;-73
2023/01/05 05:52:39;;;;;;;32.40;30.70;;;12.50;99.90;;;;;;6241525;23;20872;-73
2023/01/05 05:55:08;;;;;;;33.30;31.70;;;12.50;99.90;;;;;;6240855;23;20447;-73
2023/01/05 05:57:35;;;;;;;31.70;30.10;;;12.40;99.90;;;;;;6241148;23;20747;-73
2023/01/05 06:00:01;;;;;;;30.63;29.20;;;12.40;99.90;;;;;;6240974;23;20977;-73
2023/01/05 06:02:29;;;;;;;29.97;28.47;;;12.30;99.90;;;;;;6241440;23;20791;-73
2023/01/05 06:04:56;;;;;;;32.17;30.50;;;12.20;99.90;;;;;;6241309;23;20407;-74
2023/01/05 06:07:23;;;;;;;32.47;30.87;;;12.10;99.90;;;;;;6241032;23;20407;-74
2023/01/05 06:09:49;;;;;;;30.77;29.27;;;12.00;99.90;;;;;;6241148;23;20415;-72
2023/01/05 06:12:16;;;;;;;30.80;29.23;;;11.90;99.90;;;;;;6241357;22;20435;-72
2023/01/05 06:14:43;;;;;;;31.97;30.27;;;11.80;99.90;;;;;;6242440;23;20396;-73
2023/01/05 06:17:09;;;;;;;32.57;30.70;;;11.70;99.90;;;;;;6242129;23;20400;-73
2023/01/05 06:19:37;;;;;;;34.47;32.50;;;11.70;99.90;;;;;;6242007;23;20411;-71
2023/01/05 06:22:04;;;;;;;32.43;30.70;;;11.60;99.90;;;;;;6241911;23;20419;-73
2023/01/05 06:24:31;;;;;;;31.33;29.30;;;11.50;99.90;;;;;;6241784;23;20895;-72
2023/01/05 06:26:57;;;;;;;31.77;30.07;;;11.60;99.90;;;;;;6241839;23;20914;-73
2023/01/05 06:29:24;;;;;;;31.07;29.37;;;11.50;99.90;;;;;;6242043;23;20431;-73
2023/01/05 06:31:50;;;;;;;32.07;29.87;;;11.50;99.90;;;;;;6241975;23;20408;-73
2023/01/05 06:34:17;;;;;;;30.90;29.23;;;11.40;99.90;;;;;;6242147;23;20423;-76
2023/01/05 06:36:45;;;;;;;33.40;31.40;;;11.40;99.90;;;;;;6242813;23;20812;-76
2023/01/05 06:39:12;;;;;;;31.43;29.50;;;11.30;99.90;;;;;;6242062;23;20416;-74
2023/01/05 06:41:38;;;;;;;32.73;30.83;;;11.30;99.90;;;;;;6241988;23;20423;-75
2023/01/05 06:44:05;;;;;;;31.70;29.70;;;11.30;99.90;;;;;;6242099;23;20466;-76
2023/01/05 06:46:32;;;;;;;33.40;31.47;;;11.30;99.90;;;;;;6241572;23;20891;-76
2023/01/05 06:48:59;;;;;;;33.13;31.27;;;11.30;99.90;;;;;;6242485;23;20770;-76
2023/01/05 06:51:25;;;;;;;32.60;30.60;;;11.30;99.90;;;;;;6241991;23;20411;-75
2023/01/05 06:53:53;;;;;;;31.70;29.80;;;11.30;99.90;;;;;;6241588;23;20408;-75
2023/01/05 06:56:20;;;;;;;32.07;30.17;;;11.40;99.90;;;;;;6241647;23;20446;-73
2023/01/05 06:58:47;;;;;;;35.77;33.70;;;11.40;99.90;;;;;;6241769;23;20413;-71
2023/01/05 07:01:13;;;;;;;35.13;33.10;;;11.40;99.90;;;;;;6242126;23;20408;-74
2023/01/05 07:03:40;;;;;;;33.80;31.40;;;11.40;99.90;;;;;;6241426;23;20404;-75
2023/01/05 07:06:07;;;;;;;33.03;31.23;;;11.40;99.90;;;;;;6242081;23;20811;-75
2023/01/05 07:08:34;;;;;;;34.00;32.03;;;11.40;99.90;;;;;;6242623;23;20407;-76
2023/01/05 07:11:02;;;;;;;34.40;32.20;;;11.40;99.90;;;;;;6243468;22;20432;-77
2023/01/05 07:13:28;;;;;;;33.60;31.70;;;11.40;99.90;;;;;;6242655;23;20431;-78
2023/01/05 07:15:55;;;;;;;34.50;32.50;;;11.40;99.90;;;;;;6242250;23;20444;-75
2023/01/05 07:18:21;;;;;;;35.77;33.53;;;11.40;99.90;;;;;;6241721;23;20423;-76
2023/01/05 07:20:48;;;;;;;35.13;33.10;;;11.40;99.90;;;;;;6241835;23;20443;-75
2023/01/05 07:23:15;;;;;;;34.00;32.10;;;11.40;99.90;;;;;;6242495;23;20404;-77
2023/01/05 07:25:42;;;;;;;34.70;32.80;;;11.40;99.90;;;;;;6241690;23;20412;-77
2023/01/05 07:28:10;;;;;;;33.73;31.93;;;11.50;99.90;;;;;;6242172;23;20470;-78
2023/01/05 07:30:36;;;;;;;33.77;31.87;;;11.50;99.90;;;;;;6242546;23;20434;-77
2023/01/05 07:33:04;;;;;;;35.70;33.90;;;11.50;99.90;;;;;;6242782;23;20495;-77
2023/01/05 07:35:30;;;;;;;34.10;32.30;;;11.50;99.90;;;;;;6242379;23;21031;-75
2023/01/05 07:37:57;;;;;;;35.93;33.93;;;11.50;99.90;;;;;;6242436;23;20407;-76
2023/01/05 07:40:24;;;;;;;35.50;33.50;;;11.60;99.90;;;;;;6242133;23;20404;-76
2023/01/05 07:42:51;;;;;;;35.90;33.90;;;11.50;99.90;;;;;;6242042;23;20738;-76
2023/01/05 07:48:02;;;;;;;33.60;31.43;;;13.40;99.90;;;;;;5085624;28;20273;-76
2023/01/05 07:50:29;;;;;;;33.70;31.87;;;11.60;99.90;;;;;;5060777;28;20466;-75
2023/01/05 07:52:58;;;;;;;35.30;33.30;;;11.50;99.90;;;;;;5066086;28;20443;-77
2023/01/05 07:55:24;;;;;;;34.37;32.47;;;11.60;99.90;;;;;;5066117;28;20749;-75
2023/01/05 07:57:51;;;;;;;36.23;34.53;;;11.50;99.90;;;;;;5069281;28;20979;-78
2023/01/05 08:00:18;;;;;;;34.80;32.43;;;11.60;99.90;;;;;;5066007;28;20458;-77
2023/01/05 08:02:46;;;;;;;32.20;30.60;;;11.60;99.90;;;;;;5062899;28;20500;-77
2023/01/05 08:05:13;;;;;;;33.03;31.33;;;11.50;99.90;;;;;;5065494;28;20486;-77
2023/01/05 08:07:39;;;;;;;30.70;29.27;;;11.60;99.90;;;;;;5065492;28;20443;-75
2023/01/05 08:15:35;;;;;;;29.23;27.67;;;11.70;99.90;;;;;;5045262;28;20579;-75
2023/01/05 08:18:03;;;;;;;29.27;27.77;;;11.70;99.90;;;;;;5045407;28;20448;-74
2023/01/05 08:20:30;;;;;;;28.53;27.43;;;11.70;99.90;;;;;;5045301;28;20823;-75
2023/01/05 08:22:57;;;;;;;28.40;26.90;;;11.80;99.90;;;;;;5045345;28;20452;-75
2023/01/05 08:25:23;;;;;;;26.47;25.27;;;11.80;99.90;;;;;;5045046;28;20476;-74
2023/01/05 08:27:50;;;;;;;25.43;24.43;;;11.90;99.90;;;;;;5044973;28;20518;-73
2023/01/05 08:30:17;;;;;;;27.30;26.10;;;11.90;99.90;;;;;;5045435;28;20452;-74
2023/01/05 08:32:44;;;;;;;26.87;25.60;;;12.00;99.90;;;;;;5043786;28;20942;-74
2023/01/05 08:35:12;;;;;;;26.33;25.03;;;12.10;99.90;;;;;;5045179;28;20502;-75
2023/01/05 08:37:39;;;;;;;23.90;22.80;;;12.30;99.90;;;;;;5044954;28;20456;-74
2023/01/05 08:40:07;;;;;;;23.50;22.47;;;12.30;99.90;;;;;;5044784;28;20456;-74
2023/01/05 08:42:34;;;;;;;23.47;22.07;;;12.30;99.90;;;;;;5044726;28;20909;-74
2023/01/05 08:45:01;;;;;;;20.47;19.47;;;12.30;99.90;;;;;;5044952;28;20491;-74
2023/01/05 08:47:27;;;;;;;18.77;17.87;;;12.30;99.90;;;;;;5045062;28;20476;-74
2023/01/05 08:49:54;;;;;;;19.30;18.20;;;12.40;99.90;;;;;;5044724;28;20854;-75
2023/01/05 08:52:22;;;;;;;17.43;16.73;;;12.50;99.90;;;;;;5044677;28;20656;-76
2023/01/05 08:54:49;;;;;;;17.27;15.93;;;12.50;99.90;;;;;;5044666;28;20452;-75
2023/01/05 08:57:16;;;;;;;16.50;15.70;;;12.60;99.90;;;;;;5038977;28;20464;-74
2023/01/05 08:59:43;;;;;;;13.80;13.30;;;12.60;99.90;;;;;;5031821;28;20457;-74
2023/01/05 09:02:11;;;;;;;12.50;11.90;;;12.60;99.90;;;;;;5031269;28;20444;-75
2023/01/05 09:04:38;;;;;;;11.77;11.27;;;12.50;99.90;;;;;;5031277;28;20479;-75
2023/01/05 09:07:04;;;;;;;12.50;11.90;;;12.50;99.90;;;;;;5031155;28;20492;-75
2023/01/05 09:09:32;;;;;;;13.70;13.00;;;12.60;99.90;;;;;;5031442;28;20452;-75
2023/01/05 09:11:59;;;;;;;13.50;12.57;;;12.70;99.90;;;;;;5031386;28;20484;-76
2023/01/05 09:14:26;;;;;;;14.40;13.40;;;12.70;99.90;;;;;;5031246;28;20456;-75
2023/01/05 09:16:52;;;;;;;14.23;13.53;;;12.80;99.90;;;;;;5031116;28;20477;-76
2023/01/05 09:19:19;;;;;;;13.70;12.90;;;12.80;99.90;;;;;;5031072;28;20456;-75
2023/01/05 09:21:46;;;;;;;13.57;12.87;;;12.80;99.90;;;;;;5030987;28;20452;-75
2023/01/05 09:24:13;;;;;;;13.50;12.80;;;12.70;99.90;;;;;;5031284;28;20448;-75
2023/01/05 09:26:41;;;;;;;14.07;13.27;;;12.80;99.90;;;;;;5030688;28;21032;-74
2023/01/05 09:29:08;;;;;;;14.30;13.30;;;12.80;99.90;;;;;;5031077;28;20449;-73
2023/01/05 09:31:35;;;;;;;14.33;13.30;;;12.70;99.90;;;;;;5030902;28;20463;-75
2023/01/05 09:34:01;;;;;;;14.70;13.50;;;12.80;99.90;;;;;;5031590;28;20452;-74
2023/01/05 09:36:28;;;;;;;13.87;12.93;;;12.90;99.90;;;;;;5031764;28;20457;-74
2023/01/05 09:38:56;;;;;;;14.33;13.50;;;13.00;99.90;;;;;;5031450;28;20445;-74
2023/01/05 09:41:26;;;;;;;13.70;12.80;;;12.90;99.90;;;;;;5031495;28;20716;-74
2023/01/05 09:43:58;;;;;;;13.23;12.40;;;12.90;99.90;;;;;;5031301;28;20807;-74
2023/01/05 09:46:29;;;;;;;12.60;11.87;;;12.90;99.90;;;;;;5031097;28;20604;-74
2023/01/05 09:48:59;;;;;;;14.53;13.43;;;12.90;99.90;;;;;;5031384;28;20460;-74
2023/01/05 09:51:26;;;;;;;16.67;15.37;;;12.90;99.90;;;;;;5031211;28;20493;-73
2023/01/05 09:53:53;;;;;;;14.93;14.03;;;13.10;99.90;;;;;;5031183;28;20464;-73
2023/01/05 09:56:27;;;;;;;14.70;13.67;;;13.10;99.90;;;;;;5031140;28;20475;-75
2023/01/05 09:59:02;;;;;;;13.57;12.47;;;13.00;99.90;;;;;;5029247;28;20461;-73
2023/01/05 10:01:35;;;;;;;15.10;13.77;;;13.10;99.90;;;;;;5038326;28;20440;-74
2023/01/05 10:04:06;;;;;;;14.53;13.40;;;13.20;99.90;;;;;;5041683;28;20993;-73
2023/01/05 10:06:39;;;;;;;13.47;12.77;;;13.10;99.90;;;;;;5030337;28;20485;-73
2023/01/05 10:09:08;;;;;;;13.53;12.30;;;13.10;99.90;;;;;;5044344;28;20905;-73
2023/01/05 10:14:35;;;;;;;12.70;11.80;;;13.20;99.90;;;;;;5050663;28;20432;-74
2023/01/05 10:17:02;;;;;;;14.13;13.00;;;13.20;99.90;;;;;;5040065;28;20437;-72
2023/01/05 10:19:29;;;;;;;15.20;14.20;;;13.20;99.90;;;;;;5030423;28;20459;-74
2023/01/05 10:22:06;;;;;;;14.83;13.57;;;13.30;99.90;;;;;;5030273;28;20452;-73
2023/01/05 10:24:44;;;;;;;14.17;12.97;;;13.40;99.90;;;;;;5029955;28;20943;-74
2023/01/05 10:27:17;;;;;;;13.30;12.47;;;13.40;99.90;;;;;;5029973;28;20480;-73
2023/01/05 10:29:48;;;;;;;13.27;12.60;;;13.60;99.90;;;;;;5030284;28;20846;-74
2023/01/05 10:32:24;;;;;;;14.53;13.00;;;13.60;99.90;;;;;;5030344;28;20445;-74
2023/01/05 10:34:57;;;;;;;13.70;12.80;;;13.60;99.90;;;;;;5046063;28;20545;-73
2023/01/05 10:37:48;;;;;;;13.97;12.97;;;13.80;99.90;;;;;;5049508;28;20448;-74
2023/01/05 10:40:23;;;;;;;14.97;14.00;;;13.90;99.90;;;;;;5049934;28;20448;-73
2023/01/05 10:42:59;;;;;;;13.67;12.37;;;13.90;99.90;;;;;;5049895;28;20455;-74
2023/01/05 10:45:30;;;;;;;14.30;13.30;;;13.90;99.90;;;;;;5049672;28;20506;-73
2023/01/05 10:47:58;;;;;;;16.57;14.00;;;14.00;99.90;;;;;;5049646;28;20484;-73
2023/01/05 10:50:34;;;;;;;13.37;12.10;;;14.00;99.90;;;;;;5049886;28;20451;-73
2023/01/05 10:53:08;;;;;;;14.03;12.87;;;13.90;99.90;;;;;;5049597;28;20475;-74
2023/01/05 10:55:43;;;;;;;15.60;14.30;;;13.90;99.90;;;;;;5049494;28;20448;-72
2023/01/05 10:58:21;;;;;;;15.40;14.07;;;13.90;99.90;;;;;;5049379;28;20462;-72
2023/01/05 11:00:50;;;;;;;13.70;12.27;;;13.90;99.90;;;;;;5049286;28;20448;-72
2023/01/05 11:03:19;;;;;;;14.00;12.60;;;13.90;99.90;;;;;;5049367;28;20498;-73
2023/01/05 11:05:47;;;;;;;15.30;13.80;;;13.90;99.90;;;;;;5049173;28;20448;-73
2023/01/05 11:08:16;;;;;;;13.27;12.13;;;13.90;99.90;;;;;;5039293;28;20468;-73
2023/01/05 11:10:50;;;;;;;14.97;13.53;;;13.90;99.90;;;;;;5029337;28;20483;-74
2023/01/05 11:13:24;;;;;;;14.50;13.10;;;13.70;99.90;;;;;;5029226;28;20457;-73
2023/01/05 11:15:54;;;;;;;13.30;12.40;;;13.80;99.90;;;;;;5029229;28;20827;-74
2023/01/05 11:18:26;;;;;;;14.30;13.17;;;13.90;99.90;;;;;;5029153;28;20456;-73
2023/01/05 11:21:12;;;;;;;14.20;13.23;;;13.60;99.90;;;;;;5028861;28;20910;-74
2023/01/05 11:23:40;;;;;;;13.70;12.40;;;13.60;99.90;;;;;;5029013;28;20856;-73
2023/01/05 11:26:24;;;;;;;12.90;11.87;;;13.50;99.90;;;;;;5028821;28;20449;-73
2023/01/05 11:28:58;;;;;;;13.73;12.73;;;13.50;99.90;;;;;;5026700;28;21019;-73
2023/01/05 11:31:31;;;;;;;13.30;12.03;;;13.60;99.90;;;;;;5029067;28;20448;-73
2023/01/05 11:34:00;;;;;;;13.80;12.43;;;13.60;99.90;;;;;;5029268;28;20518;-73
2023/01/05 11:36:27;;;;;;;13.20;12.20;;;13.70;99.90;;;;;;5038810;28;20436;-73
2023/01/05 11:38:55;;;;;;;14.73;13.30;;;13.70;99.90;;;;;;5048671;28;20451;-73
2023/01/05 11:41:23;;;;;;;14.57;12.93;;;13.70;99.90;;;;;;5048430;28;20474;-72
2023/01/05 11:43:50;;;;;;;13.17;12.33;;;13.70;99.90;;;;;;5048536;28;20460;-73
2023/01/05 11:46:17;;;;;;;13.13;12.23;;;13.60;99.90;;;;;;5048652;28;20487;-74
2023/01/05 11:48:52;;;;;;;12.43;11.63;;;13.60;99.90;;;;;;5049410;28;20456;-73
2023/01/05 11:51:33;;;;;;;13.13;12.07;;;13.70;99.90;;;;;;5049109;28;20470;-73
2023/01/05 11:54:00;;;;;;;13.87;12.73;;;13.80;99.90;;;;;;5049142;28;20479;-73
2023/01/05 11:56:27;;;;;;;14.53;13.27;;;13.90;99.90;;;;;;5048894;28;20455;-73
2023/01/05 11:58:56;;;;;;;12.40;11.53;;;13.70;99.90;;;;;;5048732;28;20448;-72
2023/01/05 12:01:48;;;;;;;14.83;13.70;;;13.80;99.90;;;;;;5048123;28;20458;-73
2023/01/05 12:04:38;;;;;;;14.07;12.70;;;13.80;99.90;;;;;;5048655;28;20490;-73
2023/01/05 12:07:26;;;;;;;14.93;13.70;;;13.90;99.90;;;;;;5048225;28;20492;-73
2023/01/05 12:10:33;;;;;;;13.90;12.33;;;13.80;99.90;;;;;;5048275;28;20452;-73
2023/01/05 12:13:07;;;;;;;13.27;12.07;;;13.80;99.90;;;;;;5047429;28;20715;-74
2023/01/05 12:15:49;;;;;;;13.37;12.57;;;13.90;99.90;;;;;;5047356;28;20456;-72
2023/01/05 12:18:37;;;;;;;12.97;11.97;;;14.00;99.90;;;;;;5047214;28;20444;-73
2023/01/05 12:21:12;;;;;;;11.60;10.97;;;14.10;99.90;;;;;;5046987;28;20451;-74
2023/01/05 12:23:58;;;;;;;13.90;12.37;;;14.10;99.90;;;;;;5046790;28;20452;-74
2023/01/05 12:26:27;;;;;;;14.00;13.03;;;14.20;99.90;;;;;;5046561;28;20471;-74
2023/01/05 12:29:19;;;;;;;14.63;13.03;;;14.40;99.90;;;;;;5047109;28;20447;-74
2023/01/05 12:32:06;;;;;;;13.70;12.70;;;14.50;99.90;;;;;;5047211;28;20452;-74
2023/01/05 12:34:58;;;;;;;15.27;13.20;;;14.40;99.90;;;;;;5050637;28;20455;-73
2023/01/05 12:37:37;;;;;;;14.20;13.00;;;14.00;99.90;;;;;;5049936;28;20451;-74
2023/01/05 12:40:28;;;;;;;14.43;13.20;;;14.00;99.90;;;;;;5050634;28;20451;-74
2023/01/05 12:43:01;;;;;;;13.30;12.40;;;14.10;99.90;;;;;;5050533;28;20448;-73
2023/01/05 12:45:48;;;;;;;13.47;12.47;;;14.00;99.90;;;;;;5050787;28;20479;-73
2023/01/05 12:48:19;;;;;;;12.60;11.60;;;14.10;99.90;;;;;;5051291;28;20483;-74
2023/01/05 12:50:50;;;;;;;13.07;12.07;;;13.90;99.90;;;;;;5050809;28;20459;-74
2023/01/05 12:53:32;;;;;;;14.93;13.83;;;14.00;99.90;;;;;;5050526;28;20452;-73
2023/01/05 12:56:02;;;;;;;13.53;12.37;;;14.00;99.90;;;;;;5050685;28;20489;-74
2023/01/05 12:58:36;;;;;;;13.97;12.60;;;13.90;99.90;;;;;;5050976;28;20451;-74
2023/01/05 13:01:06;;;;;;;13.63;12.53;;;14.00;99.90;;;;;;5050811;28;20443;-73
2023/01/05 13:03:39;;;;;;;17.40;13.63;;;13.80;99.90;;;;;;5050763;28;20793;-73
2023/01/05 13:06:09;;;;;;;15.70;14.07;;;13.70;99.90;;;;;;5050582;28;20463;-73
2023/01/05 13:08:42;;;;;;;13.70;12.67;;;13.80;99.90;;;;;;5037217;28;20592;-73
2023/01/05 13:11:17;;;;;;;13.37;12.23;;;13.90;99.90;;;;;;5030326;28;20851;-73
2023/01/05 13:13:49;;;;;;;13.33;12.13;;;14.00;99.90;;;;;;5030789;28;20455;-74
2023/01/05 13:16:21;;;;;;;12.53;11.73;;;14.20;99.90;;;;;;5030778;28;20813;-73
2023/01/05 13:18:53;;;;;;;13.60;12.40;;;14.00;99.90;;;;;;5030300;28;20445;-73
2023/01/05 13:21:21;;;;;;;13.60;12.27;;;14.00;99.90;;;;;;5030254;28;20453;-74
2023/01/05 13:23:55;;;;;;;12.60;11.50;;;13.90;99.90;;;;;;5030379;28;20507;-73
2023/01/05 13:26:22;;;;;;;14.77;13.17;;;13.90;99.90;;;;;;5030299;28;20452;-74
2023/01/05 13:28:52;;;;;;;15.40;12.67;;;13.80;99.90;;;;;;5030255;28;20485;-74
2023/01/05 13:31:55;;;;;;;14.50;13.53;;;13.80;99.90;;;;;;5030044;28;20483;-74
2023/01/05 13:34:48;;;;;;;14.23;13.07;;;13.80;99.90;;;;;;4972081;28;20791;-74
2023/01/05 13:37:33;;;;;;;14.33;12.83;;;13.80;99.90;;;;;;5030017;28;20650;-74
2023/01/05 13:40:23;;;;;;;16.70;13.47;;;13.70;99.90;;;;;;5029949;28;20479;-74
2023/01/05 13:43:06;;;;;;;13.60;12.40;;;13.80;99.90;;;;;;5029754;28;20546;-74
2023/01/05 13:46:03;;;;;;;12.70;11.80;;;13.80;99.90;;;;;;5029974;28;20491;-74
2023/01/05 13:48:52;;;;;;;13.90;12.83;;;13.90;99.90;;;;;;5029705;28;20489;-74
2023/01/05 13:51:39;;;;;;;13.60;12.17;;;14.00;99.90;;;;;;5030005;28;20464;-74
2023/01/05 13:54:13;;;;;;;12.53;11.70;;;14.00;99.90;;;;;;5029555;28;20452;-74
2023/01/05 13:56:41;;;;;;;13.17;12.10;;;13.90;99.90;;;;;;5029807;28;20448;-73
2023/01/05 13:59:21;;;;;;;14.50;13.00;;;13.80;99.90;;;;;;5029557;28;20471;-74
2023/01/05 14:01:49;;;;;;;14.50;13.20;;;13.70;99.90;;;;;;5029627;28;20872;-73
2023/01/05 14:04:19;;;;;;;13.77;12.70;;;13.70;99.90;;;;;;5025582;28;20507;-73
2023/01/05 14:06:48;;;;;;;15.13;13.70;;;13.60;99.90;;;;;;5018179;28;20450;-73
2023/01/05 14:09:23;;;;;;;14.70;13.40;;;13.60;99.90;;;;;;5034332;28;20449;-74
2023/01/05 14:12:41;;;;;;;13.13;12.23;;;13.50;99.90;;;;;;5029393;28;20471;-73
2023/01/05 14:15:37;;;;;;;14.77;13.27;;;13.40;99.90;;;;;;5009483;28;20477;-73
2023/01/05 14:18:05;;;;;;;16.77;12.43;;;13.60;99.90;;;;;;5009268;28;21080;-73
2023/01/05 14:20:41;;;;;;;13.57;12.50;;;13.50;99.90;;;;;;5009547;28;20457;-75
2023/01/05 14:23:45;;;;;;;13.23;11.97;;;13.50;99.90;;;;;;5029147;28;20506;-73
2023/01/05 14:26:12;;;;;;;13.27;12.47;;;13.50;99.90;;;;;;5029131;28;20464;-73
2023/01/05 14:28:49;;;;;;;14.00;12.90;;;13.50;99.90;;;;;;5028676;28;20496;-73
2023/01/05 14:31:46;;;;;;;14.10;13.13;;;13.50;99.90;;;;;;5029224;28;20449;-74
2023/01/05 14:34:21;;;;;;;13.20;12.40;;;13.40;99.90;;;;;;5028830;28;20575;-71
2023/01/05 14:37:06;;;;;;;13.80;12.70;;;13.40;99.90;;;;;;5028615;28;20448;-72
2023/01/05 14:39:40;;;;;;;14.87;12.37;;;13.40;99.90;;;;;;5028272;28;20914;-73
2023/01/05 14:42:17;;;;;;;15.83;14.37;;;13.40;99.90;;;;;;5028564;28;20467;-73
2023/01/05 14:44:49;;;;;;;12.87;11.87;;;13.40;99.90;;;;;;5028679;28;20460;-73
2023/01/05 14:47:17;;;;;;;14.70;13.30;;;13.40;99.90;;;;;;5028336;28;20953;-72
2023/01/05 14:49:52;;;;;;;12.87;11.93;;;13.30;99.90;;;;;;5028401;28;20476;-73
2023/01/05 14:52:42;;;;;;;12.83;11.83;;;13.30;99.90;;;;;;5028114;28;20453;-73
2023/01/05 14:55:19;;;;;;;16.37;13.37;;;13.30;99.90;;;;;;5027921;28;20457;-73
2023/01/05 14:57:50;;;;;;;15.10;12.30;;;13.40;99.90;;;;;;5028262;28;20480;-73
2023/01/05 15:00:29;;;;;;;17.80;13.63;;;13.50;99.90;;;;;;5027926;28;20560;-74
2023/01/05 15:03:05;;;;;;;13.97;12.70;;;13.50;99.90;;;;;;5028017;28;20794;-73
2023/01/05 15:05:34;;;;;;;18.70;13.70;;;13.40;99.90;;;;;;5028279;28;20459;-73
2023/01/05 15:08:13;;;;;;;14.97;13.57;;;13.30;99.90;;;;;;5036334;28;20494;-73
2023/01/05 15:10:58;;;;;;;14.60;13.27;;;13.30;99.90;;;;;;5048168;28;20514;-73
2023/01/05 15:17:08;;;;;;;14.27;13.10;;;13.40;99.90;;;;;;4993921;28;20743;-74
2023/01/05 15:19:49;;;;;;;14.87;13.80;;;13.50;99.90;;;;;;5027205;28;20444;-73
2023/01/05 15:22:32;;;;;;;16.30;15.03;;;13.50;99.90;;;;;;5027965;28;20455;-73
2023/01/05 15:25:20;;;;;;;13.37;12.37;;;13.50;99.90;;;;;;5027956;28;20817;-73
2023/01/05 15:28:05;;;;;;;14.87;13.50;;;13.50;99.90;;;;;;5027670;28;20531;-73
2023/01/05 15:30:46;;;;;;;15.53;14.30;;;13.50;99.90;;;;;;5027654;28;20463;-74
2023/01/05 15:33:18;;;;;;;14.97;13.50;;;13.50;99.90;;;;;;5028091;28;20459;-74
2023/01/05 15:35:51;;;;;;;12.80;11.90;;;13.40;99.90;;;;;;5026193;28;20931;-73
2023/01/05 15:38:23;;;;;;;14.93;13.47;;;13.30;99.90;;;;;;5027665;28;20465;-73
2023/01/05 15:40:58;;;;;;;13.60;12.60;;;13.20;99.90;;;;;;5028566;28;20448;-73
2023/01/05 15:43:25;;;;;;;17.43;14.10;;;13.20;99.90;;;;;;5028658;28;20444;-73
2023/01/05 15:45:53;;;;;;;13.73;12.80;;;13.30;99.90;;;;;;5028605;28;20476;-78
2023/01/05 15:48:27;;;;;;;16.33;14.40;;;13.20;99.90;;;;;;5026853;28;20488;-78
2023/01/05 15:51:00;;;;;;;14.43;13.53;;;13.10;99.90;;;;;;5028257;28;20445;-73
2023/01/05 15:53:31;;;;;;;14.10;12.97;;;13.10;99.90;;;;;;5025303;28;20548;-72
2023/01/05 15:55:59;;;;;;;15.80;14.30;;;13.20;99.90;;;;;;5025689;28;20453;-73
2023/01/05 15:58:29;;;;;;;13.73;12.27;;;13.10;99.90;;;;;;5027909;28;20518;-73
2023/01/05 16:01:05;;;;;;;14.97;13.70;;;13.10;99.90;;;;;;5027692;28;20452;-73
2023/01/05 16:03:35;;;;;;;14.07;13.30;;;13.00;99.90;;;;;;5027667;28;20452;-73
2023/01/05 16:06:06;;;;;;;14.03;13.07;;;13.00;99.90;;;;;;5027910;28;20452;-73
2023/01/05 16:08:39;;;;;;;16.07;14.40;;;13.00;99.90;;;;;;5030425;28;20488;-73
2023/01/05 16:11:08;;;;;;;12.43;11.77;;;13.00;99.90;;;;;;5031260;28;20476;-74
2023/01/05 16:13:39;;;;;;;13.83;12.60;;;12.90;99.90;;;;;;5031227;28;20459;-73
2023/01/05 16:16:14;;;;;;;14.50;13.50;;;12.90;99.90;;;;;;5031034;28;20456;-74
2023/01/05 16:18:48;;;;;;;14.30;13.00;;;13.00;99.90;;;;;;5031249;28;20455;-73
2023/01/05 16:21:23;;;;;;;13.07;12.20;;;13.00;99.90;;;;;;5031809;28;20445;-74
2023/01/05 16:23:55;;;;;;;13.33;12.23;;;12.80;99.90;;;;;;5031543;28;20997;-74
2023/01/05 16:26:22;;;;;;;13.30;12.03;;;12.90;99.90;;;;;;5031443;28;20484;-73
2023/01/05 16:28:49;;;;;;;12.43;11.70;;;13.00;99.90;;;;;;5031396;28;21001;-73
2023/01/05 16:31:26;;;;;;;14.97;13.70;;;13.00;99.90;;;;;;5031494;28;20953;-73
2023/01/05 16:34:03;;;;;;;13.73;12.83;;;13.00;99.90;;;;;;5031714;28;20462;-73